Home   Weather   Amos Canyon   Past weeks
Flag for USA

Past Weather in Amos Canyon, Utah, USA — Yesterday and Last 2 Weeks

Currently: 54 °F. Clear. (Weather station: Provo Municipal, USA). See more current weather

Past Weather in Amos Canyon — Graph

°F

Amos Canyon Temperature Yesterday

Maximum temperature yesterday: 64 °F (at 3:56 pm)
Minimum temperature yesterday: 47 °F (at 6:56 am)
Average temperature yesterday: 56 °F

High & Low Weather Summary for the Past Weeks

 TemperatureHumidityPressure
High95 °F (Sep 9, 3:56 pm)87% (Sep 11, 7:56 am)30.35 "Hg (Sep 11, 7:56 am)
Low47 °F (Sep 20, 6:56 am)9% (Sep 17, 4:56 pm)29.72 "Hg (Sep 16, 3:56 pm)
Average69 °F44%29.97 "Hg
* Reported Sep 5 10:56 pm — Sep 20 10:56 pm, Amos Canyon. Weather by CustomWeather, © 2021

Note: Actual official high and low records may vary slightly from our data, if they occured in-between our weather recording intervals... More about our weather records

Amos Canyon Weather History for the Previous 24 Hours

Scroll right to see more
 ConditionsComfort  
Time TempWeatherWind HumidityBarometerVisibility
10:56 pm
Mon, Sep 20
54 °FClear.5 mph41%30.35 "Hg10 mi
9:56 pm57 °FClear.14 mph36%30.32 "Hg10 mi
8:56 pm58 °FClear.13 mph36%30.31 "Hg10 mi
7:56 pm59 °FClear.12 mph32%30.29 "Hg10 mi
6:56 pm62 °FSunny.10 mph29%30.26 "Hg10 mi
5:56 pm63 °FSunny.10 mph30%30.24 "Hg10 mi
4:56 pm64 °FSunny.9 mph30%30.24 "Hg10 mi
3:56 pm64 °FSunny.10 mph30%30.24 "Hg10 mi
2:56 pm62 °FSunny.3 mph31%30.25 "Hg10 mi
1:56 pm60 °FSunny.6 mph38%30.27 "Hg10 mi
12:56 pm59 °FSunny.7 mph39%30.26 "Hg10 mi
11:56 am58 °FSunny.9 mph43%30.27 "Hg10 mi
10:56 am56 °FSunny.8 mph46%30.26 "Hg10 mi
9:56 am54 °FSunny.3 mph49%30.26 "Hg10 mi
8:56 am51 °FSunny.8 mph56%30.24 "Hg10 mi
7:56 am48 °FSunny.5 mph61%30.22 "Hg10 mi
6:56 am47 °FClear.No wind61%30.20 "Hg10 mi
5:56 am50 °FClear.15 mph59%30.17 "Hg10 mi
4:56 am51 °FClear.17 mph56%30.14 "Hg10 mi
3:56 am52 °FClear.18 mph55%30.13 "Hg10 mi
2:56 am50 °FClear.9 mph57%30.10 "Hg10 mi
1:56 am52 °FClear.10 mph55%30.08 "Hg10 mi
12:56 am54 °FClear.12 mph51%30.07 "Hg10 mi
Weather by CustomWeather, © 2021

See weather overview